sensor_id;sensor_type;location;lat;lon;timestamp;temperature;humidity
2571;DHT22;1295;51.130;6.732;2023-04-03T00:01:58;7.70;99.90
2571;DHT22;1295;51.130;6.732;2023-04-03T00:04:23;7.70;99.90
2571;DHT22;1295;51.130;6.732;2023-04-03T00:06:50;7.70;99.90
2571;DHT22;1295;51.130;6.732;2023-04-03T00:09:15;7.70;99.90
2571;DHT22;1295;51.130;6.732;2023-04-03T00:11:42;7.70;99.90
2571;DHT22;1295;51.130;6.732;2023-04-03T00:14:07;7.70;99.90
2571;DHT22;1295;51.130;6.732;2023-04-03T00:16:33;7.70;99.90
2571;DHT22;1295;51.130;6.732;2023-04-03T00:18:59;7.70;99.90
2571;DHT22;1295;51.130;6.732;2023-04-03T00:21:24;7.70;99.90
2571;DHT22;1295;51.130;6.732;2023-04-03T00:23:50;7.60;99.90
2571;DHT22;1295;51.130;6.732;2023-04-03T00:26:15;7.60;99.90
2571;DHT22;1295;51.130;6.732;2023-04-03T00:28:41;7.60;99.90
2571;DHT22;1295;51.130;6.732;2023-04-03T00:31:07;7.60;99.90
2571;DHT22;1295;51.130;6.732;2023-04-03T00:33:33;7.60;99.90
2571;DHT22;1295;51.130;6.732;2023-04-03T00:35:59;7.60;99.90
2571;DHT22;1295;51.130;6.732;2023-04-03T00:38:25;7.60;99.90
2571;DHT22;1295;51.130;6.732;2023-04-03T00:40:51;7.50;99.90
2571;DHT22;1295;51.130;6.732;2023-04-03T00:43:19;7.50;99.90
2571;DHT22;1295;51.130;6.732;2023-04-03T00:45:44;7.50;99.90
2571;DHT22;1295;51.130;6.732;2023-04-03T00:48:10;7.50;99.90
2571;DHT22;1295;51.130;6.732;2023-04-03T00:50:35;7.50;99.90
2571;DHT22;1295;51.130;6.732;2023-04-03T00:53:00;7.50;99.90
2571;DHT22;1295;51.130;6.732;2023-04-03T00:55:26;7.50;99.90
2571;DHT22;1295;51.130;6.732;2023-04-03T00:57:52;7.40;99.90
2571;DHT22;1295;51.130;6.732;2023-04-03T01:00:18;7.50;99.90
2571;DHT22;1295;51.130;6.732;2023-04-03T01:02:43;7.50;99.90
2571;DHT22;1295;51.130;6.732;2023-04-03T01:05:09;7.50;99.90
2571;DHT22;1295;51.130;6.732;2023-04-03T01:07:35;7.40;99.90
2571;DHT22;1295;51.130;6.732;2023-04-03T01:10:03;7.40;99.90
2571;DHT22;1295;51.130;6.732;2023-04-03T01:12:29;7.40;99.90
2571;DHT22;1295;51.130;6.732;2023-04-03T01:14:56;7.40;99.90
2571;DHT22;1295;51.130;6.732;2023-04-03T01:17:44;7.40;99.90
2571;DHT22;1295;51.130;6.732;2023-04-03T01:20:31;7.40;99.90
2571;DHT22;1295;51.130;6.732;2023-04-03T01:25:34;7.40;99.90
2571;DHT22;1295;51.130;6.732;2023-04-03T01:28:00;7.30;99.90
2571;DHT22;1295;51.130;6.732;2023-04-03T01:30:31;7.30;99.90
2571;DHT22;1295;51.130;6.732;2023-04-03T01:32:53;7.30;99.90
2571;DHT22;1295;51.130;6.732;2023-04-03T01:35:19;7.40;99.90
2571;DHT22;1295;51.130;6.732;2023-04-03T01:37:45;7.30;99.90
2571;DHT22;1295;51.130;6.732;2023-04-03T01:40:11;7.30;99.90
2571;DHT22;1295;51.130;6.732;2023-04-03T01:42:36;7.30;99.90
2571;DHT22;1295;51.130;6.732;2023-04-03T01:45:03;7.30;99.90
2571;DHT22;1295;51.130;6.732;2023-04-03T01:47:29;7.20;99.90
2571;DHT22;1295;51.130;6.732;2023-04-03T01:49:55;7.30;99.90
2571;DHT22;1295;51.130;6.732;2023-04-03T01:52:20;7.20;99.90
2571;DHT22;1295;51.130;6.732;2023-04-03T01:54:47;7.20;99.90
2571;DHT22;1295;51.130;6.732;2023-04-03T01:57:12;7.20;99.90
2571;DHT22;1295;51.130;6.732;2023-04-03T01:59:38;7.20;99.90
2571;DHT22;1295;51.130;6.732;2023-04-03T02:02:04;7.20;99.90
2571;DHT22;1295;51.130;6.732;2023-04-03T02:04:30;7.20;99.90
2571;DHT22;1295;51.130;6.732;2023-04-03T02:06:56;7.10;99.90
2571;DHT22;1295;51.130;6.732;2023-04-03T02:09:21;7.10;99.90
2571;DHT22;1295;51.130;6.732;2023-04-03T02:11:54;7.10;99.90
2571;DHT22;1295;51.130;6.732;2023-04-03T02:14:20;7.10;99.90
2571;DHT22;1295;51.130;6.732;2023-04-03T02:16:46;7.10;99.90
2571;DHT22;1295;51.130;6.732;2023-04-03T02:19:12;7.10;99.90
2571;DHT22;1295;51.130;6.732;2023-04-03T02:21:37;7.10;99.90
2571;DHT22;1295;51.130;6.732;2023-04-03T02:24:03;7.10;99.90
2571;DHT22;1295;51.130;6.732;2023-04-03T02:26:29;7.10;99.90
2571;DHT22;1295;51.130;6.732;2023-04-03T02:28:54;7.10;99.90
2571;DHT22;1295;51.130;6.732;2023-04-03T02:31:20;7.10;99.90
2571;DHT22;1295;51.130;6.732;2023-04-03T02:33:46;7.00;99.90
2571;DHT22;1295;51.130;6.732;2023-04-03T02:36:11;7.00;99.90
2571;DHT22;1295;51.130;6.732;2023-04-03T02:38:37;7.00;99.90
2571;DHT22;1295;51.130;6.732;2023-04-03T02:41:04;7.00;99.90
2571;DHT22;1295;51.130;6.732;2023-04-03T02:43:28;7.00;99.90
2571;DHT22;1295;51.130;6.732;2023-04-03T02:45:54;7.00;99.90
2571;DHT22;1295;51.130;6.732;2023-04-03T02:48:20;7.00;99.90
2571;DHT22;1295;51.130;6.732;2023-04-03T02:50:46;7.00;99.90
2571;DHT22;1295;51.130;6.732;2023-04-03T02:53:12;7.00;99.90
2571;DHT22;1295;51.130;6.732;2023-04-03T02:55:37;6.90;99.90
2571;DHT22;1295;51.130;6.732;2023-04-03T02:58:03;7.00;99.90
2571;DHT22;1295;51.130;6.732;2023-04-03T03:00:29;7.00;99.90
2571;DHT22;1295;51.130;6.732;2023-04-03T03:02:54;7.00;99.90
2571;DHT22;1295;51.130;6.732;2023-04-03T03:05:20;6.90;99.90
2571;DHT22;1295;51.130;6.732;2023-04-03T03:07:45;6.90;99.90
2571;DHT22;1295;51.130;6.732;2023-04-03T03:10:11;6.90;99.90
2571;DHT22;1295;51.130;6.732;2023-04-03T03:12:37;6.90;99.90
2571;DHT22;1295;51.130;6.732;2023-04-03T03:15:03;6.80;99.90
2571;DHT22;1295;51.130;6.732;2023-04-03T03:17:29;6.90;99.90
2571;DHT22;1295;51.130;6.732;2023-04-03T03:19:55;6.90;99.90
2571;DHT22;1295;51.130;6.732;2023-04-03T03:22:21;6.90;99.90
2571;DHT22;1295;51.130;6.732;2023-04-03T03:24:47;6.90;99.90
2571;DHT22;1295;51.130;6.732;2023-04-03T03:27:13;6.90;99.90
2571;DHT22;1295;51.130;6.732;2023-04-03T03:29:38;6.70;99.90
2571;DHT22;1295;51.130;6.732;2023-04-03T03:32:04;6.80;99.90
2571;DHT22;1295;51.130;6.732;2023-04-03T03:34:29;6.80;99.90
2571;DHT22;1295;51.130;6.732;2023-04-03T03:36:56;6.80;99.90
2571;DHT22;1295;51.130;6.732;2023-04-03T03:39:21;6.80;99.90
2571;DHT22;1295;51.130;6.732;2023-04-03T03:41:47;6.80;99.90
2571;DHT22;1295;51.130;6.732;2023-04-03T03:44:13;6.80;99.90
2571;DHT22;1295;51.130;6.732;2023-04-03T03:46:38;6.80;99.90
2571;DHT22;1295;51.130;6.732;2023-04-03T03:49:04;6.80;99.90
2571;DHT22;1295;51.130;6.732;2023-04-03T03:51:30;6.80;99.90
2571;DHT22;1295;51.130;6.732;2023-04-03T03:53:55;6.80;99.90
2571;DHT22;1295;51.130;6.732;2023-04-03T03:56:21;6.70;99.90
2571;DHT22;1295;51.130;6.732;2023-04-03T03:58:47;6.70;99.90
2571;DHT22;1295;51.130;6.732;2023-04-03T04:01:12;6.70;99.90
2571;DHT22;1295;51.130;6.732;2023-04-03T04:03:38;6.70;99.90
2571;DHT22;1295;51.130;6.732;2023-04-03T04:06:03;6.70;99.90
2571;DHT22;1295;51.130;6.732;2023-04-03T04:08:29;6.70;99.90
2571;DHT22;1295;51.130;6.732;2023-04-03T04:10:55;6.70;99.90
2571;DHT22;1295;51.130;6.732;2023-04-03T04:13:20;6.60;99.90
2571;DHT22;1295;51.130;6.732;2023-04-03T04:15:46;6.70;99.90
2571;DHT22;1295;51.130;6.732;2023-04-03T04:18:12;6.60;99.90
2571;DHT22;1295;51.130;6.732;2023-04-03T04:20:37;6.60;99.90
2571;DHT22;1295;51.130;6.732;2023-04-03T04:23:03;6.60;99.90
2571;DHT22;1295;51.130;6.732;2023-04-03T04:25:28;6.60;99.90
2571;DHT22;1295;51.130;6.732;2023-04-03T04:27:54;6.60;99.90
2571;DHT22;1295;51.130;6.732;2023-04-03T04:30:20;6.70;99.90
2571;DHT22;1295;51.130;6.732;2023-04-03T04:32:45;6.60;99.90
2571;DHT22;1295;51.130;6.732;2023-04-03T04:35:11;6.60;99.90
2571;DHT22;1295;51.130;6.732;2023-04-03T04:37:37;6.60;99.90
2571;DHT22;1295;51.130;6.732;2023-04-03T04:40:02;6.50;99.90
2571;DHT22;1295;51.130;6.732;2023-04-03T04:42:29;6.50;99.90
2571;DHT22;1295;51.130;6.732;2023-04-03T04:44:55;6.50;99.90
2571;DHT22;1295;51.130;6.732;2023-04-03T04:47:20;6.30;99.90
2571;DHT22;1295;51.130;6.732;2023-04-03T04:49:47;6.50;99.90
2571;DHT22;1295;51.130;6.732;2023-04-03T04:52:19;6.50;99.90
2571;DHT22;1295;51.130;6.732;2023-04-03T04:54:45;6.50;99.90
2571;DHT22;1295;51.130;6.732;2023-04-03T04:57:10;6.50;99.90
2571;DHT22;1295;51.130;6.732;2023-04-03T04:59:36;6.50;99.90
2571;DHT22;1295;51.130;6.732;2023-04-03T05:02:02;6.50;99.90
2571;DHT22;1295;51.130;6.732;2023-04-03T05:04:37;6.50;99.90
2571;DHT22;1295;51.130;6.732;2023-04-03T05:07:03;6.50;99.90
2571;DHT22;1295;51.130;6.732;2023-04-03T05:09:28;6.40;99.90
2571;DHT22;1295;51.130;6.732;2023-04-03T05:11:55;6.40;99.90
2571;DHT22;1295;51.130;6.732;2023-04-03T05:14:21;6.40;99.90
2571;DHT22;1295;51.130;6.732;2023-04-03T05:16:46;6.40;99.90
2571;DHT22;1295;51.130;6.732;2023-04-03T05:19:13;6.10;99.90
2571;DHT22;1295;51.130;6.732;2023-04-03T05:21:38;6.10;99.90
2571;DHT22;1295;51.130;6.732;2023-04-03T05:24:05;6.30;99.90
2571;DHT22;1295;51.130;6.732;2023-04-03T05:26:31;6.40;99.90
2571;DHT22;1295;51.130;6.732;2023-04-03T05:28:56;6.40;99.90
2571;DHT22;1295;51.130;6.732;2023-04-03T05:31:22;6.40;99.90
2571;DHT22;1295;51.130;6.732;2023-04-03T05:33:47;6.30;99.90
2571;DHT22;1295;51.130;6.732;2023-04-03T05:36:13;6.30;99.90
2571;DHT22;1295;51.130;6.732;2023-04-03T05:38:39;6.30;99.90
2571;DHT22;1295;51.130;6.732;2023-04-03T05:41:04;6.30;99.90
2571;DHT22;1295;51.130;6.732;2023-04-03T05:43:30;6.30;99.90
2571;DHT22;1295;51.130;6.732;2023-04-03T05:45:55;6.30;99.90
2571;DHT22;1295;51.130;6.732;2023-04-03T05:48:22;6.30;99.90
2571;DHT22;1295;51.130;6.732;2023-04-03T05:50:47;6.30;99.90
2571;DHT22;1295;51.130;6.732;2023-04-03T05:53:18;6.30;99.90
2571;DHT22;1295;51.130;6.732;2023-04-03T05:55:43;6.30;99.90
2571;DHT22;1295;51.130;6.732;2023-04-03T05:58:09;6.20;99.90
2571;DHT22;1295;51.130;6.732;2023-04-03T06:00:35;6.30;99.90
2571;DHT22;1295;51.130;6.732;2023-04-03T06:03:01;6.30;99.90
2571;DHT22;1295;51.130;6.732;2023-04-03T06:05:27;6.20;99.90
2571;DHT22;1295;51.130;6.732;2023-04-03T06:07:52;6.30;99.90
2571;DHT22;1295;51.130;6.732;2023-04-03T06:10:18;6.30;99.90
2571;DHT22;1295;51.130;6.732;2023-04-03T06:12:43;6.20;99.90
2571;DHT22;1295;51.130;6.732;2023-04-03T06:15:09;6.30;99.90
2571;DHT22;1295;51.130;6.732;2023-04-03T06:17:36;6.30;99.90
2571;DHT22;1295;51.130;6.732;2023-04-03T06:20:01;6.20;99.90
2571;DHT22;1295;51.130;6.732;2023-04-03T06:22:27;6.20;99.90
2571;DHT22;1295;51.130;6.732;2023-04-03T06:24:53;6.20;99.90
2571;DHT22;1295;51.130;6.732;2023-04-03T06:27:18;6.10;99.90
2571;DHT22;1295;51.130;6.732;2023-04-03T06:29:44;6.20;99.90
2571;DHT22;1295;51.130;6.732;2023-04-03T06:32:10;6.20;99.90
2571;DHT22;1295;51.130;6.732;2023-04-03T06:34:36;6.20;99.90
2571;DHT22;1295;51.130;6.732;2023-04-03T06:37:14;6.30;99.90
2571;DHT22;1295;51.130;6.732;2023-04-03T06:39:42;6.30;99.90
2571;DHT22;1295;51.130;6.732;2023-04-03T06:42:07;6.30;99.90
2571;DHT22;1295;51.130;6.732;2023-04-03T06:44:33;6.20;99.90
2571;DHT22;1295;51.130;6.732;2023-04-03T06:46:59;5.50;99.90
2571;DHT22;1295;51.130;6.732;2023-04-03T06:49:25;6.10;99.90
2571;DHT22;1295;51.130;6.732;2023-04-03T06:51:51;6.10;99.90
2571;DHT22;1295;51.130;6.732;2023-04-03T06:54:17;6.00;99.90
2571;DHT22;1295;51.130;6.732;2023-04-03T06:56:43;5.90;99.90
2571;DHT22;1295;51.130;6.732;2023-04-03T06:59:09;5.90;99.90
2571;DHT22;1295;51.130;6.732;2023-04-03T07:01:34;5.30;99.90
2571;DHT22;1295;51.130;6.732;2023-04-03T07:04:00;5.40;99.90
2571;DHT22;1295;51.130;6.732;2023-04-03T07:06:25;5.40;99.90
2571;DHT22;1295;51.130;6.732;2023-04-03T07:08:51;5.20;99.90
2571;DHT22;1295;51.130;6.732;2023-04-03T07:11:17;5.80;99.90
2571;DHT22;1295;51.130;6.732;2023-04-03T07:13:42;5.80;99.90
2571;DHT22;1295;51.130;6.732;2023-04-03T07:16:08;5.80;99.90
2571;DHT22;1295;51.130;6.732;2023-04-03T07:18:35;5.80;99.90
2571;DHT22;1295;51.130;6.732;2023-04-03T07:21:00;5.80;99.90
2571;DHT22;1295;51.130;6.732;2023-04-03T07:23:26;6.00;99.90
2571;DHT22;1295;51.130;6.732;2023-04-03T07:25:51;6.10;99.90
2571;DHT22;1295;51.130;6.732;2023-04-03T07:28:17;5.70;99.90
2571;DHT22;1295;51.130;6.732;2023-04-03T07:30:45;6.10;99.90
2571;DHT22;1295;51.130;6.732;2023-04-03T07:33:10;6.00;99.90
2571;DHT22;1295;51.130;6.732;2023-04-03T07:35:36;5.90;99.90
2571;DHT22;1295;51.130;6.732;2023-04-03T07:38:01;6.20;99.90
2571;DHT22;1295;51.130;6.732;2023-04-03T07:40:27;6.20;99.90
2571;DHT22;1295;51.130;6.732;2023-04-03T07:42:53;6.30;99.90
2571;DHT22;1295;51.130;6.732;2023-04-03T07:45:18;6.30;99.90
2571;DHT22;1295;51.130;6.732;2023-04-03T07:47:44;5.90;99.90
2571;DHT22;1295;51.130;6.732;2023-04-03T07:50:10;5.80;99.90
2571;DHT22;1295;51.130;6.732;2023-04-03T07:52:36;6.60;99.90
2571;DHT22;1295;51.130;6.732;2023-04-03T07:55:02;6.60;99.90
2571;DHT22;1295;51.130;6.732;2023-04-03T07:57:28;6.60;99.90
2571;DHT22;1295;51.130;6.732;2023-04-03T07:59:53;6.50;99.90
2571;DHT22;1295;51.130;6.732;2023-04-03T08:02:19;6.70;99.90
2571;DHT22;1295;51.130;6.732;2023-04-03T08:04:45;6.70;99.90
2571;DHT22;1295;51.130;6.732;2023-04-03T08:07:10;6.90;99.90
2571;DHT22;1295;51.130;6.732;2023-04-03T08:09:36;6.90;99.90
2571;DHT22;1295;51.130;6.732;2023-04-03T08:12:02;7.10;99.90
2571;DHT22;1295;51.130;6.732;2023-04-03T08:14:30;7.40;99.90
2571;DHT22;1295;51.130;6.732;2023-04-03T08:16:54;7.30;99.90
2571;DHT22;1295;51.130;6.732;2023-04-03T08:19:19;7.30;99.90
2571;DHT22;1295;51.130;6.732;2023-04-03T08:21:46;7.60;99.90
2571;DHT22;1295;51.130;6.732;2023-04-03T08:24:11;7.60;99.90
2571;DHT22;1295;51.130;6.732;2023-04-03T08:26:37;7.70;99.90
2571;DHT22;1295;51.130;6.732;2023-04-03T08:29:03;7.50;99.90
2571;DHT22;1295;51.130;6.732;2023-04-03T08:31:29;7.50;99.90
2571;DHT22;1295;51.130;6.732;2023-04-03T08:33:56;7.80;99.90
2571;DHT22;1295;51.130;6.732;2023-04-03T08:36:23;7.80;99.90
2571;DHT22;1295;51.130;6.732;2023-04-03T08:38:48;7.40;99.90
2571;DHT22;1295;51.130;6.732;2023-04-03T08:41:16;7.80;99.90
2571;DHT22;1295;51.130;6.732;2023-04-03T08:46:15;7.90;99.90
2571;DHT22;1295;51.130;6.732;2023-04-03T08:48:41;7.80;99.90
2571;DHT22;1295;51.130;6.732;2023-04-03T08:51:14;8.80;99.90
2571;DHT22;1295;51.130;6.732;2023-04-03T08:53:40;8.00;99.90
2571;DHT22;1295;51.130;6.732;2023-04-03T08:56:05;8.70;99.90
2571;DHT22;1295;51.130;6.732;2023-04-03T08:58:30;8.30;99.90
2571;DHT22;1295;51.130;6.732;2023-04-03T09:00:57;8.40;99.90
2571;DHT22;1295;51.130;6.732;2023-04-03T09:03:22;8.90;99.90
2571;DHT22;1295;51.130;6.732;2023-04-03T09:06:08;8.70;99.90
2571;DHT22;1295;51.130;6.732;2023-04-03T09:08:37;8.20;99.90
2571;DHT22;1295;51.130;6.732;2023-04-03T09:11:14;9.20;99.90
2571;DHT22;1295;51.130;6.732;2023-04-03T09:13:39;8.60;99.90
2571;DHT22;1295;51.130;6.732;2023-04-03T09:16:03;8.40;99.90
2571;DHT22;1295;51.130;6.732;2023-04-03T09:18:30;8.40;99.90
2571;DHT22;1295;51.130;6.732;2023-04-03T09:23:36;9.20;99.90
2571;DHT22;1295;51.130;6.732;2023-04-03T09:26:05;9.20;99.90
2571;DHT22;1295;51.130;6.732;2023-04-03T09:28:29;9.20;99.90
2571;DHT22;1295;51.130;6.732;2023-04-03T09:30:55;10.00;99.90
2571;DHT22;1295;51.130;6.732;2023-04-03T09:33:21;9.70;99.90
2571;DHT22;1295;51.130;6.732;2023-04-03T09:35:47;9.70;99.90
2571;DHT22;1295;51.130;6.732;2023-04-03T09:38:17;9.60;99.90
2571;DHT22;1295;51.130;6.732;2023-04-03T09:40:49;9.60;99.90
2571;DHT22;1295;51.130;6.732;2023-04-03T09:43:26;9.70;99.90
2571;DHT22;1295;51.130;6.732;2023-04-03T09:45:50;8.60;99.90
2571;DHT22;1295;51.130;6.732;2023-04-03T09:48:17;9.30;99.90
2571;DHT22;1295;51.130;6.732;2023-04-03T09:51:00;8.80;99.90
2571;DHT22;1295;51.130;6.732;2023-04-03T09:53:33;10.20;99.90
2571;DHT22;1295;51.130;6.732;2023-04-03T09:55:57;10.20;99.90
2571;DHT22;1295;51.130;6.732;2023-04-03T09:58:33;9.70;99.90
2571;DHT22;1295;51.130;6.732;2023-04-03T10:00:59;9.60;99.90
2571;DHT22;1295;51.130;6.732;2023-04-03T10:03:28;9.90;99.90
2571;DHT22;1295;51.130;6.732;2023-04-03T10:05:52;10.30;99.90
2571;DHT22;1295;51.130;6.732;2023-04-03T10:08:23;10.30;99.90
2571;DHT22;1295;51.130;6.732;2023-04-03T10:10:48;10.10;99.90
2571;DHT22;1295;51.130;6.732;2023-04-03T10:13:15;9.90;99.90
2571;DHT22;1295;51.130;6.732;2023-04-03T10:15:42;9.70;99.90
2571;DHT22;1295;51.130;6.732;2023-04-03T10:18:15;9.80;99.90
2571;DHT22;1295;51.130;6.732;2023-04-03T10:20:37;9.70;99.90
2571;DHT22;1295;51.130;6.732;2023-04-03T10:23:14;8.80;99.90
2571;DHT22;1295;51.130;6.732;2023-04-03T10:25:46;9.70;99.90
2571;DHT22;1295;51.130;6.732;2023-04-03T10:28:11;9.20;99.90
2571;DHT22;1295;51.130;6.732;2023-04-03T10:33:32;10.30;99.90
2571;DHT22;1295;51.130;6.732;2023-04-03T10:36:51;10.30;99.90
2571;DHT22;1295;51.130;6.732;2023-04-03T10:39:01;10.60;99.90
2571;DHT22;1295;51.130;6.732;2023-04-03T10:41:38;10.70;99.90
2571;DHT22;1295;51.130;6.732;2023-04-03T10:47:03;10.50;99.90
2571;DHT22;1295;51.130;6.732;2023-04-03T10:49:34;10.30;99.90
2571;DHT22;1295;51.130;6.732;2023-04-03T10:52:14;10.60;99.90
2571;DHT22;1295;51.130;6.732;2023-04-03T10:54:39;9.80;99.90
2571;DHT22;1295;51.130;6.732;2023-04-03T10:57:06;9.80;99.90
2571;DHT22;1295;51.130;6.732;2023-04-03T10:59:40;9.10;99.90
2571;DHT22;1295;51.130;6.732;2023-04-03T11:02:06;9.10;99.90
2571;DHT22;1295;51.130;6.732;2023-04-03T11:04:30;9.80;99.90
2571;DHT22;1295;51.130;6.732;2023-04-03T11:07:00;10.10;99.90
2571;DHT22;1295;51.130;6.732;2023-04-03T11:09:28;10.60;99.90
2571;DHT22;1295;51.130;6.732;2023-04-03T11:12:00;9.30;99.90
2571;DHT22;1295;51.130;6.732;2023-04-03T11:14:27;9.50;99.90
2571;DHT22;1295;51.130;6.732;2023-04-03T11:16:57;10.40;99.90
2571;DHT22;1295;51.130;6.732;2023-04-03T11:19:21;10.50;99.90
2571;DHT22;1295;51.130;6.732;2023-04-03T11:21:50;10.10;99.90
2571;DHT22;1295;51.130;6.732;2023-04-03T11:24:17;10.00;99.90
2571;DHT22;1295;51.130;6.732;2023-04-03T11:26:42;10.00;99.90
2571;DHT22;1295;51.130;6.732;2023-04-03T11:29:10;9.60;99.90
2571;DHT22;1295;51.130;6.732;2023-04-03T11:31:42;9.40;99.90
2571;DHT22;1295;51.130;6.732;2023-04-03T11:34:12;9.60;99.90
2571;DHT22;1295;51.130;6.732;2023-04-03T11:36:41;9.90;99.90
2571;DHT22;1295;51.130;6.732;2023-04-03T11:39:15;10.20;99.90
2571;DHT22;1295;51.130;6.732;2023-04-03T11:41:35;10.20;99.90
2571;DHT22;1295;51.130;6.732;2023-04-03T11:44:05;9.40;99.90
2571;DHT22;1295;51.130;6.732;2023-04-03T11:49:49;8.80;99.90
2571;DHT22;1295;51.130;6.732;2023-04-03T11:51:37;8.80;99.90
2571;DHT22;1295;51.130;6.732;2023-04-03T11:54:35;9.60;99.90
2571;DHT22;1295;51.130;6.732;2023-04-03T11:56:52;9.80;99.90
2571;DHT22;1295;51.130;6.732;2023-04-03T11:59:23;9.90;99.90
2571;DHT22;1295;51.130;6.732;2023-04-03T12:01:48;9.70;99.90
2571;DHT22;1295;51.130;6.732;2023-04-03T12:04:13;10.70;99.90
2571;DHT22;1295;51.130;6.732;2023-04-03T12:07:00;9.80;99.90
2571;DHT22;1295;51.130;6.732;2023-04-03T12:09:29;10.00;99.90
2571;DHT22;1295;51.130;6.732;2023-04-03T12:11:54;10.00;99.90
2571;DHT22;1295;51.130;6.732;2023-04-03T12:14:22;9.50;99.90
2571;DHT22;1295;51.130;6.732;2023-04-03T12:16:45;9.50;99.90
2571;DHT22;1295;51.130;6.732;2023-04-03T12:19:31;9.60;99.90
2571;DHT22;1295;51.130;6.732;2023-04-03T12:22:11;10.40;99.90
2571;DHT22;1295;51.130;6.732;2023-04-03T12:24:36;10.50;99.90
2571;DHT22;1295;51.130;6.732;2023-04-03T12:27:04;9.90;99.90
2571;DHT22;1295;51.130;6.732;2023-04-03T12:29:36;9.40;99.90
2571;DHT22;1295;51.130;6.732;2023-04-03T12:35:44;9.90;99.90
2571;DHT22;1295;51.130;6.732;2023-04-03T12:39:06;9.60;99.90
2571;DHT22;1295;51.130;6.732;2023-04-03T12:40:58;9.40;99.90
2571;DHT22;1295;51.130;6.732;2023-04-03T12:43:28;9.40;99.90
2571;DHT22;1295;51.130;6.732;2023-04-03T12:45:58;10.10;99.90
2571;DHT22;1295;51.130;6.732;2023-04-03T12:48:22;10.10;99.90
2571;DHT22;1295;51.130;6.732;2023-04-03T12:50:46;9.50;99.90
2571;DHT22;1295;51.130;6.732;2023-04-03T12:53:18;10.20;99.90
2571;DHT22;1295;51.130;6.732;2023-04-03T12:55:42;9.80;99.90
2571;DHT22;1295;51.130;6.732;2023-04-03T12:58:24;9.30;99.90
2571;DHT22;1295;51.130;6.732;2023-04-03T13:01:03;9.10;99.90
2571;DHT22;1295;51.130;6.732;2023-04-03T13:03:27;9.10;99.90
2571;DHT22;1295;51.130;6.732;2023-04-03T13:05:54;10.20;99.90
2571;DHT22;1295;51.130;6.732;2023-04-03T13:08:18;10.10;99.90
2571;DHT22;1295;51.130;6.732;2023-04-03T13:10:51;10.20;99.90
2571;DHT22;1295;51.130;6.732;2023-04-03T13:13:14;9.90;99.90
2571;DHT22;1295;51.130;6.732;2023-04-03T13:15:42;10.10;99.90
2571;DHT22;1295;51.130;6.732;2023-04-03T13:18:20;10.30;99.40
2571;DHT22;1295;51.130;6.732;2023-04-03T13:20:32;10.70;99.90
2571;DHT22;1295;51.130;6.732;2023-04-03T13:23:07;10.30;99.90
2571;DHT22;1295;51.130;6.732;2023-04-03T13:25:33;9.90;99.90
2571;DHT22;1295;51.130;6.732;2023-04-03T13:27:58;9.80;99.90
2571;DHT22;1295;51.130;6.732;2023-04-03T13:30:32;10.20;99.90
2571;DHT22;1295;51.130;6.732;2023-04-03T13:33:00;10.00;99.90
2571;DHT22;1295;51.130;6.732;2023-04-03T13:35:30;9.90;99.90
2571;DHT22;1295;51.130;6.732;2023-04-03T13:37:56;9.90;99.90
2571;DHT22;1295;51.130;6.732;2023-04-03T13:40:20;10.20;99.90
2571;DHT22;1295;51.130;6.732;2023-04-03T13:42:46;10.70;99.90
2571;DHT22;1295;51.130;6.732;2023-04-03T13:45:22;9.70;99.90
2571;DHT22;1295;51.130;6.732;2023-04-03T13:47:48;9.70;99.90
2571;DHT22;1295;51.130;6.732;2023-04-03T13:50:19;10.00;99.90
2571;DHT22;1295;51.130;6.732;2023-04-03T13:52:50;10.30;99.90
2571;DHT22;1295;51.130;6.732;2023-04-03T13:55:20;10.50;99.90
2571;DHT22;1295;51.130;6.732;2023-04-03T13:57:50;10.80;99.90
2571;DHT22;1295;51.130;6.732;2023-04-03T14:00:21;10.20;99.90
2571;DHT22;1295;51.130;6.732;2023-04-03T14:02:46;10.30;99.90
2571;DHT22;1295;51.130;6.732;2023-04-03T14:05:12;10.30;99.90
2571;DHT22;1295;51.130;6.732;2023-04-03T14:07:38;9.70;99.90
2571;DHT22;1295;51.130;6.732;2023-04-03T14:10:05;9.70;99.90
2571;DHT22;1295;51.130;6.732;2023-04-03T14:12:33;9.60;99.90
2571;DHT22;1295;51.130;6.732;2023-04-03T14:14:57;9.60;99.90
2571;DHT22;1295;51.130;6.732;2023-04-03T14:17:24;10.20;99.90
2571;DHT22;1295;51.130;6.732;2023-04-03T14:19:49;10.20;99.90
2571;DHT22;1295;51.130;6.732;2023-04-03T14:22:20;9.90;99.90
2571;DHT22;1295;51.130;6.732;2023-04-03T14:24:44;10.00;99.90
2571;DHT22;1295;51.130;6.732;2023-04-03T14:27:19;10.00;99.90
2571;DHT22;1295;51.130;6.732;2023-04-03T14:29:46;9.80;99.90
2571;DHT22;1295;51.130;6.732;2023-04-03T14:32:12;9.90;99.90
2571;DHT22;1295;51.130;6.732;2023-04-03T14:34:37;10.30;99.90
2571;DHT22;1295;51.130;6.732;2023-04-03T14:37:04;10.50;99.90
2571;DHT22;1295;51.130;6.732;2023-04-03T14:39:35;10.50;99.90
2571;DHT22;1295;51.130;6.732;2023-04-03T14:42:00;10.50;99.90
2571;DHT22;1295;51.130;6.732;2023-04-03T14:44:26;10.60;99.90
2571;DHT22;1295;51.130;6.732;2023-04-03T14:46:52;10.60;99.90
2571;DHT22;1295;51.130;6.732;2023-04-03T14:49:19;10.80;99.90
2571;DHT22;1295;51.130;6.732;2023-04-03T14:51:43;10.70;99.90
2571;DHT22;1295;51.130;6.732;2023-04-03T14:54:15;10.50;99.90
2571;DHT22;1295;51.130;6.732;2023-04-03T14:56:40;10.60;99.90
2571;DHT22;1295;51.130;6.732;2023-04-03T14:59:08;10.50;99.90
2571;DHT22;1295;51.130;6.732;2023-04-03T15:01:32;10.60;99.90
2571;DHT22;1295;51.130;6.732;2023-04-03T15:03:57;10.60;99.90
2571;DHT22;1295;51.130;6.732;2023-04-03T15:06:32;10.20;99.90
2571;DHT22;1295;51.130;6.732;2023-04-03T15:08:58;10.40;99.90
2571;DHT22;1295;51.130;6.732;2023-04-03T15:11:24;10.40;99.90
2571;DHT22;1295;51.130;6.732;2023-04-03T15:13:50;10.30;99.90
2571;DHT22;1295;51.130;6.732;2023-04-03T15:16:16;10.20;99.90
2571;DHT22;1295;51.130;6.732;2023-04-03T15:18:42;10.10;99.90
2571;DHT22;1295;51.130;6.732;2023-04-03T15:21:08;10.10;99.90
2571;DHT22;1295;51.130;6.732;2023-04-03T15:23:33;10.20;99.90
2571;DHT22;1295;51.130;6.732;2023-04-03T15:25:59;10.20;99.90
2571;DHT22;1295;51.130;6.732;2023-04-03T15:28:30;10.00;99.90
2571;DHT22;1295;51.130;6.732;2023-04-03T15:30:55;10.00;99.90
2571;DHT22;1295;51.130;6.732;2023-04-03T15:33:21;10.20;99.90
2571;DHT22;1295;51.130;6.732;2023-04-03T15:35:46;10.10;99.90
2571;DHT22;1295;51.130;6.732;2023-04-03T15:38:12;10.20;99.90
2571;DHT22;1295;51.130;6.732;2023-04-03T15:40:38;10.20;99.90
2571;DHT22;1295;51.130;6.732;2023-04-03T15:43:04;10.20;99.90
2571;DHT22;1295;51.130;6.732;2023-04-03T15:45:29;10.20;99.90
2571;DHT22;1295;51.130;6.732;2023-04-03T15:47:55;10.40;99.90
2571;DHT22;1295;51.130;6.732;2023-04-03T15:50:20;10.30;99.90
2571;DHT22;1295;51.130;6.732;2023-04-03T15:52:46;10.20;99.90
2571;DHT22;1295;51.130;6.732;2023-04-03T15:55:12;10.30;99.90
2571;DHT22;1295;51.130;6.732;2023-04-03T15:57:38;10.30;99.90
2571;DHT22;1295;51.130;6.732;2023-04-03T16:00:04;10.20;99.90
2571;DHT22;1295;51.130;6.732;2023-04-03T16:02:30;10.30;99.90
2571;DHT22;1295;51.130;6.732;2023-04-03T16:04:56;10.30;99.90
2571;DHT22;1295;51.130;6.732;2023-04-03T16:07:22;10.40;99.90
2571;DHT22;1295;51.130;6.732;2023-04-03T16:09:47;10.40;99.90
2571;DHT22;1295;51.130;6.732;2023-04-03T16:12:13;10.30;99.90
2571;DHT22;1295;51.130;6.732;2023-04-03T16:14:39;10.40;99.90
2571;DHT22;1295;51.130;6.732;2023-04-03T16:17:09;10.40;99.90
2571;DHT22;1295;51.130;6.732;2023-04-03T16:19:35;10.30;99.90
2571;DHT22;1295;51.130;6.732;2023-04-03T16:22:01;10.30;99.90
2571;DHT22;1295;51.130;6.732;2023-04-03T16:24:27;10.30;99.90
2571;DHT22;1295;51.130;6.732;2023-04-03T16:26:53;10.30;99.90
2571;DHT22;1295;51.130;6.732;2023-04-03T16:29:19;10.30;99.90
2571;DHT22;1295;51.130;6.732;2023-04-03T16:31:45;10.30;99.90
2571;DHT22;1295;51.130;6.732;2023-04-03T16:34:11;10.30;99.90